THY6UF LTFM-LTBS
Flight info
| Callsign | THY6UF |
|---|---|
| Flight time | 0h 54m |
| Altitude | 34000 |
| Route | RATVU1E/36 RATVU UT35 NUMTI DCT KULAR/N0440F350 UT44 ATSAL |
| Aircraft | A320/M-SDE3FGHIRWY/LB1 |
Departure
| Time | 2026-05-05 19:55 |
|---|---|
| Airport | İstanbul Airport (LTFM) |
Arrival
| Time | 2026-05-05 20:49 |
|---|---|
| Airport | Dalaman International Airport (LTBS) |
| Time | Latitude | Longitude | Altitude | Speed | Heading |
|---|---|---|---|---|---|
| 2026-05-05 19:38 | 41.26037 | 28.74966 | 334 ft | 0 kts | 250° |
| 2026-05-05 19:46 | 41.26039 | 28.74974 | 330 ft | 4 kts | 251° |
| 2026-05-05 19:46 | 41.26046 | 28.75008 | 332 ft | 4 kts | 263° |
| 2026-05-05 19:46 | 41.26046 | 28.75043 | 332 ft | 4 kts | 289° |
| 2026-05-05 19:46 | 41.26034 | 28.75065 | 331 ft | 1 kts | 341° |
| 2026-05-05 19:47 | 41.26029 | 28.75067 | 332 ft | 0 kts | 341° |
| 2026-05-05 19:50 | 41.26030 | 28.75066 | 331 ft | 1 kts | 341° |
| 2026-05-05 19:50 | 41.26042 | 28.75061 | 331 ft | 3 kts | 341° |
| 2026-05-05 19:51 | 41.26069 | 28.75049 | 332 ft | 5 kts | 341° |
| 2026-05-05 19:51 | 41.26109 | 28.75030 | 331 ft | 7 kts | 340° |
| 2026-05-05 19:51 | 41.26164 | 28.75005 | 332 ft | 9 kts | 342° |
| 2026-05-05 19:51 | 41.26225 | 28.75006 | 331 ft | 8 kts | 28° |
| 2026-05-05 19:52 | 41.26244 | 28.75083 | 334 ft | 10 kts | 87° |
| 2026-05-05 19:52 | 41.26247 | 28.75184 | 334 ft | 12 kts | 88° |
| 2026-05-05 19:52 | 41.26247 | 28.75305 | 334 ft | 14 kts | 90° |
| 2026-05-05 19:52 | 41.26247 | 28.75423 | 334 ft | 12 kts | 88° |
| 2026-05-05 19:53 | 41.26250 | 28.75542 | 334 ft | 14 kts | 88° |
| 2026-05-05 19:53 | 41.26253 | 28.75650 | 333 ft | 9 kts | 75° |
| 2026-05-05 19:53 | 41.26308 | 28.75666 | 331 ft | 10 kts | 357° |
| 2026-05-05 19:53 | 41.26323 | 28.75665 | 333 ft | 0 kts | 359° |
| 2026-05-05 19:54 | 41.26328 | 28.75665 | 333 ft | 7 kts | 359° |
| 2026-05-05 19:54 | 41.26627 | 28.75658 | 333 ft | 78 kts | 359° |
| 2026-05-05 19:54 | 41.27364 | 28.75641 | 331 ft | 132 kts | 359° |
| 2026-05-05 19:54 | 41.28422 | 28.75613 | 432 ft | 164 kts | 359° |
| 2026-05-05 19:55 | 41.29540 | 28.75628 | 1090 ft | 160 kts | 9° |
| 2026-05-05 19:55 | 41.30497 | 28.76337 | 1778 ft | 158 kts | 44° |
| 2026-05-05 19:55 | 41.31301 | 28.77360 | 2310 ft | 166 kts | 37° |
| 2026-05-05 19:55 | 41.32328 | 28.78242 | 2569 ft | 187 kts | 28° |
| 2026-05-05 19:56 | 41.33540 | 28.79119 | 2818 ft | 211 kts | 27° |
| 2026-05-05 19:56 | 41.34913 | 28.80092 | 3192 ft | 235 kts | 27° |
| 2026-05-05 19:56 | 41.36397 | 28.81160 | 3874 ft | 247 kts | 27° |
| 2026-05-05 19:56 | 41.37756 | 28.82576 | 4757 ft | 255 kts | 51° |
| 2026-05-05 19:57 | 41.38386 | 28.84816 | 5624 ft | 268 kts | 81° |
| 2026-05-05 19:57 | 41.38447 | 28.87286 | 6525 ft | 272 kts | 84° |
| 2026-05-05 19:57 | 41.38424 | 28.89823 | 7346 ft | 279 kts | 92° |
| 2026-05-05 19:57 | 41.37742 | 28.92288 | 8127 ft | 294 kts | 121° |
| 2026-05-05 19:58 | 41.36205 | 28.94122 | 8921 ft | 306 kts | 151° |
| 2026-05-05 19:58 | 41.34134 | 28.94798 | 9697 ft | 312 kts | 178° |
| 2026-05-05 19:58 | 41.31944 | 28.94859 | 10410 ft | 319 kts | 179° |
| 2026-05-05 19:58 | 41.29641 | 28.94884 | 10639 ft | 342 kts | 179° |
| 2026-05-05 19:59 | 41.27189 | 28.94898 | 10928 ft | 360 kts | 179° |
| 2026-05-05 19:59 | 41.24658 | 28.94890 | 11510 ft | 366 kts | 181° |
| 2026-05-05 19:59 | 41.22168 | 28.94748 | 12181 ft | 370 kts | 183° |
| 2026-05-05 19:59 | 41.21336 | 28.94676 | 12401 ft | 371 kts | 184° |
| 2026-05-05 20:00 | 41.18742 | 28.94406 | 13080 ft | 375 kts | 185° |
| 2026-05-05 20:00 | 41.16127 | 28.94105 | 13735 ft | 379 kts | 185° |
| 2026-05-05 20:00 | 41.13485 | 28.93806 | 14332 ft | 383 kts | 184° |
| 2026-05-05 20:00 | 41.10818 | 28.93522 | 14934 ft | 386 kts | 184° |
| 2026-05-05 20:01 | 41.08133 | 28.93254 | 15542 ft | 388 kts | 184° |
| 2026-05-05 20:01 | 41.05430 | 28.93004 | 16145 ft | 391 kts | 183° |
| 2026-05-05 20:01 | 41.02712 | 28.92761 | 16742 ft | 393 kts | 183° |
| 2026-05-05 20:01 | 41.00011 | 28.92503 | 17325 ft | 396 kts | 184° |
| 2026-05-05 20:02 | 40.97253 | 28.92185 | 17915 ft | 399 kts | 185° |
| 2026-05-05 20:02 | 40.94481 | 28.91831 | 18491 ft | 401 kts | 185° |
| 2026-05-05 20:02 | 40.91693 | 28.91461 | 19017 ft | 404 kts | 185° |
| 2026-05-05 20:02 | 40.88890 | 28.91087 | 19548 ft | 406 kts | 185° |
| 2026-05-05 20:03 | 40.86063 | 28.90995 | 20087 ft | 408 kts | 176° |
| 2026-05-05 20:03 | 40.83225 | 28.91212 | 20610 ft | 410 kts | 175° |
| 2026-05-05 20:03 | 40.80368 | 28.91441 | 21117 ft | 412 kts | 175° |
| 2026-05-05 20:03 | 40.77496 | 28.91677 | 21611 ft | 414 kts | 175° |
| 2026-05-05 20:04 | 40.74612 | 28.91918 | 22086 ft | 417 kts | 175° |
| 2026-05-05 20:04 | 40.71709 | 28.91866 | 22566 ft | 419 kts | 185° |
| 2026-05-05 20:04 | 40.68802 | 28.91475 | 23043 ft | 421 kts | 185° |
| 2026-05-05 20:04 | 40.65918 | 28.91082 | 23511 ft | 424 kts | 186° |
| 2026-05-05 20:05 | 40.62941 | 28.90670 | 23927 ft | 426 kts | 186° |
| 2026-05-05 20:05 | 40.59983 | 28.90259 | 24319 ft | 428 kts | 185° |
| 2026-05-05 20:05 | 40.57053 | 28.89853 | 24701 ft | 431 kts | 185° |
| 2026-05-05 20:05 | 40.54064 | 28.89440 | 25088 ft | 433 kts | 185° |
| 2026-05-05 20:06 | 40.51058 | 28.89026 | 25462 ft | 435 kts | 185° |
| 2026-05-05 20:06 | 40.48041 | 28.88612 | 25834 ft | 437 kts | 185° |
| 2026-05-05 20:06 | 40.45006 | 28.88195 | 26207 ft | 440 kts | 185° |
| 2026-05-05 20:06 | 40.41915 | 28.87769 | 26589 ft | 441 kts | 185° |
| 2026-05-05 20:07 | 40.38896 | 28.87352 | 26967 ft | 443 kts | 185° |
| 2026-05-05 20:07 | 40.35825 | 28.86929 | 27337 ft | 445 kts | 185° |
| 2026-05-05 20:07 | 40.32732 | 28.86503 | 27704 ft | 447 kts | 185° |
| 2026-05-05 20:07 | 40.29626 | 28.86078 | 28069 ft | 450 kts | 185° |
| 2026-05-05 20:08 | 40.26504 | 28.85656 | 28439 ft | 452 kts | 185° |
| 2026-05-05 20:08 | 40.23366 | 28.85235 | 28811 ft | 454 kts | 185° |
| 2026-05-05 20:08 | 40.20217 | 28.84812 | 29179 ft | 456 kts | 185° |
| 2026-05-05 20:08 | 40.17052 | 28.84384 | 29532 ft | 458 kts | 185° |
| 2026-05-05 20:09 | 40.13871 | 28.83952 | 29889 ft | 461 kts | 185° |
| 2026-05-05 20:09 | 40.10684 | 28.83517 | 30305 ft | 460 kts | 185° |
| 2026-05-05 20:09 | 40.07500 | 28.83081 | 30723 ft | 460 kts | 185° |
| 2026-05-05 20:09 | 40.04319 | 28.82649 | 31115 ft | 460 kts | 186° |
| 2026-05-05 20:10 | 40.01137 | 28.82218 | 31491 ft | 460 kts | 186° |
| 2026-05-05 20:10 | 39.97954 | 28.81788 | 31880 ft | 460 kts | 186° |
| 2026-05-05 20:10 | 39.94776 | 28.81359 | 32270 ft | 460 kts | 186° |
| 2026-05-05 20:10 | 39.91592 | 28.80928 | 32667 ft | 460 kts | 186° |
| 2026-05-05 20:11 | 39.88405 | 28.80496 | 33050 ft | 460 kts | 186° |
| 2026-05-05 20:11 | 39.85213 | 28.80065 | 33418 ft | 461 kts | 187° |
| 2026-05-05 20:11 | 39.82054 | 28.79639 | 33740 ft | 463 kts | 187° |
| 2026-05-05 20:11 | 39.78848 | 28.79212 | 34037 ft | 464 kts | 187° |
| 2026-05-05 20:12 | 39.75626 | 28.78783 | 34103 ft | 468 kts | 187° |
| 2026-05-05 20:12 | 39.69133 | 28.77909 | 34097 ft | 469 kts | 187° |
| 2026-05-05 20:13 | 39.62621 | 28.77032 | 34101 ft | 472 kts | 187° |
| 2026-05-05 20:13 | 39.56080 | 28.76160 | 34102 ft | 472 kts | 187° |
| 2026-05-05 20:14 | 39.49546 | 28.75291 | 34110 ft | 472 kts | 187° |
| 2026-05-05 20:14 | 39.43008 | 28.74421 | 34106 ft | 472 kts | 188° |
| 2026-05-05 20:15 | 39.36468 | 28.73551 | 34099 ft | 473 kts | 188° |
| 2026-05-05 20:15 | 39.29924 | 28.72675 | 34100 ft | 473 kts | 188° |
| 2026-05-05 20:16 | 39.23366 | 28.71806 | 34097 ft | 473 kts | 188° |
| 2026-05-05 20:16 | 39.16822 | 28.70952 | 34099 ft | 473 kts | 188° |
| 2026-05-05 20:17 | 39.10261 | 28.70090 | 34102 ft | 473 kts | 188° |
| 2026-05-05 20:17 | 39.03710 | 28.69227 | 34105 ft | 473 kts | 188° |
| 2026-05-05 20:18 | 38.97156 | 28.68366 | 34104 ft | 473 kts | 188° |
| 2026-05-05 20:18 | 38.90646 | 28.67509 | 34096 ft | 473 kts | 188° |
| 2026-05-05 20:19 | 38.84091 | 28.66643 | 34095 ft | 473 kts | 189° |
| 2026-05-05 20:19 | 38.77530 | 28.65782 | 34077 ft | 474 kts | 189° |
| 2026-05-05 20:20 | 38.70955 | 28.64934 | 34061 ft | 476 kts | 189° |
| 2026-05-05 20:20 | 38.64360 | 28.64088 | 34070 ft | 476 kts | 189° |
| 2026-05-05 20:21 | 38.57745 | 28.63381 | 34057 ft | 479 kts | 182° |
| 2026-05-05 20:21 | 38.54407 | 28.63575 | 33795 ft | 481 kts | 179° |
| 2026-05-05 20:21 | 38.51065 | 28.63850 | 33506 ft | 482 kts | 179° |
| 2026-05-05 20:21 | 38.47758 | 28.64130 | 33243 ft | 483 kts | 179° |
| 2026-05-05 20:22 | 38.44400 | 28.64415 | 32981 ft | 484 kts | 179° |
| 2026-05-05 20:22 | 38.41001 | 28.64702 | 32712 ft | 483 kts | 179° |
| 2026-05-05 20:22 | 38.37700 | 28.64979 | 32452 ft | 481 kts | 179° |
| 2026-05-05 20:22 | 38.34362 | 28.65257 | 32197 ft | 479 kts | 179° |
| 2026-05-05 20:23 | 38.31042 | 28.65534 | 31943 ft | 477 kts | 179° |
| 2026-05-05 20:23 | 38.27737 | 28.65808 | 31673 ft | 474 kts | 179° |
| 2026-05-05 20:23 | 38.24457 | 28.66077 | 31162 ft | 471 kts | 179° |
| 2026-05-05 20:23 | 38.21185 | 28.66342 | 30619 ft | 470 kts | 179° |
| 2026-05-05 20:24 | 38.17930 | 28.66604 | 30070 ft | 468 kts | 179° |
| 2026-05-05 20:24 | 38.14695 | 28.66864 | 29489 ft | 464 kts | 179° |
| 2026-05-05 20:24 | 38.11490 | 28.67128 | 28966 ft | 459 kts | 179° |
| 2026-05-05 20:24 | 38.08303 | 28.67390 | 28420 ft | 455 kts | 179° |
| 2026-05-05 20:25 | 38.05198 | 28.67643 | 27932 ft | 451 kts | 179° |
| 2026-05-05 20:25 | 38.02083 | 28.67896 | 27431 ft | 446 kts | 179° |
| 2026-05-05 20:25 | 37.99000 | 28.68150 | 26930 ft | 442 kts | 179° |
| 2026-05-05 20:25 | 37.95943 | 28.68403 | 26454 ft | 438 kts | 179° |
| 2026-05-05 20:26 | 37.92905 | 28.68652 | 25972 ft | 434 kts | 179° |
| 2026-05-05 20:26 | 37.89899 | 28.68894 | 25516 ft | 431 kts | 179° |
| 2026-05-05 20:26 | 37.86916 | 28.69133 | 25052 ft | 428 kts | 179° |
| 2026-05-05 20:26 | 37.83958 | 28.69372 | 24625 ft | 425 kts | 179° |
| 2026-05-05 20:27 | 37.81016 | 28.69610 | 24184 ft | 422 kts | 179° |
| 2026-05-05 20:27 | 37.78092 | 28.69850 | 23741 ft | 420 kts | 178° |
| 2026-05-05 20:27 | 37.75180 | 28.70091 | 23243 ft | 418 kts | 178° |
| 2026-05-05 20:27 | 37.72296 | 28.70329 | 22797 ft | 413 kts | 178° |
| 2026-05-05 20:28 | 37.69440 | 28.70555 | 22350 ft | 409 kts | 179° |
| 2026-05-05 20:28 | 37.66610 | 28.70760 | 21904 ft | 406 kts | 179° |
| 2026-05-05 20:28 | 37.63803 | 28.70951 | 21438 ft | 403 kts | 179° |
| 2026-05-05 20:28 | 37.61012 | 28.71137 | 20978 ft | 400 kts | 179° |
| 2026-05-05 20:29 | 37.58277 | 28.71321 | 20504 ft | 398 kts | 179° |
| 2026-05-05 20:29 | 37.55525 | 28.71508 | 20044 ft | 395 kts | 179° |
| 2026-05-05 20:29 | 37.52787 | 28.71700 | 19558 ft | 393 kts | 179° |
| 2026-05-05 20:29 | 37.50073 | 28.72133 | 19088 ft | 393 kts | 168° |
| 2026-05-05 20:30 | 37.47482 | 28.73191 | 18768 ft | 389 kts | 158° |
| 2026-05-05 20:30 | 37.44980 | 28.74481 | 18468 ft | 388 kts | 158° |
| 2026-05-05 20:30 | 37.42482 | 28.75753 | 18122 ft | 386 kts | 158° |
| 2026-05-05 20:30 | 37.40004 | 28.77003 | 17825 ft | 383 kts | 159° |
| 2026-05-05 20:31 | 37.37533 | 28.78245 | 17520 ft | 381 kts | 159° |
| 2026-05-05 20:31 | 37.35080 | 28.79478 | 17217 ft | 379 kts | 159° |
| 2026-05-05 20:31 | 37.32638 | 28.80708 | 16917 ft | 377 kts | 159° |
| 2026-05-05 20:31 | 37.30208 | 28.81937 | 16613 ft | 375 kts | 158° |
| 2026-05-05 20:32 | 37.27792 | 28.83160 | 16305 ft | 373 kts | 158° |
| 2026-05-05 20:32 | 37.25390 | 28.84374 | 16011 ft | 371 kts | 158° |
| 2026-05-05 20:32 | 37.22995 | 28.85583 | 15715 ft | 370 kts | 159° |
| 2026-05-05 20:32 | 37.20615 | 28.86782 | 15421 ft | 368 kts | 159° |
| 2026-05-05 20:33 | 37.18248 | 28.87975 | 15118 ft | 366 kts | 158° |
| 2026-05-05 20:33 | 37.15888 | 28.89166 | 14829 ft | 365 kts | 158° |
| 2026-05-05 20:33 | 37.13532 | 28.90351 | 14538 ft | 364 kts | 158° |
| 2026-05-05 20:33 | 37.11186 | 28.91529 | 14246 ft | 362 kts | 158° |
| 2026-05-05 20:34 | 37.08855 | 28.92700 | 13959 ft | 360 kts | 158° |
| 2026-05-05 20:34 | 37.06530 | 28.93865 | 13651 ft | 359 kts | 158° |
| 2026-05-05 20:34 | 37.04219 | 28.95022 | 13368 ft | 357 kts | 158° |
| 2026-05-05 20:34 | 37.01951 | 28.96162 | 13093 ft | 355 kts | 159° |
| 2026-05-05 20:35 | 36.99658 | 28.97315 | 12392 ft | 360 kts | 159° |
| 2026-05-05 20:35 | 36.97333 | 28.98482 | 12007 ft | 356 kts | 159° |
| 2026-05-05 20:35 | 36.95001 | 28.99285 | 11974 ft | 339 kts | 174° |
| 2026-05-05 20:35 | 36.92681 | 28.99346 | 11955 ft | 323 kts | 188° |
| 2026-05-05 20:36 | 36.90525 | 28.98790 | 11548 ft | 313 kts | 198° |
| 2026-05-05 20:36 | 36.88461 | 28.98082 | 10954 ft | 310 kts | 198° |
| 2026-05-05 20:36 | 36.86400 | 28.97364 | 10473 ft | 305 kts | 197° |
| 2026-05-05 20:36 | 36.84367 | 28.96654 | 9994 ft | 301 kts | 197° |
| 2026-05-05 20:37 | 36.82366 | 28.95958 | 9553 ft | 297 kts | 197° |
| 2026-05-05 20:37 | 36.81020 | 28.95492 | 9255 ft | 295 kts | 197° |
| 2026-05-05 20:37 | 36.78395 | 28.94586 | 8739 ft | 295 kts | 197° |
| 2026-05-05 20:37 | 36.76418 | 28.93906 | 8327 ft | 294 kts | 197° |
| 2026-05-05 20:38 | 36.74454 | 28.93232 | 7933 ft | 292 kts | 196° |
| 2026-05-05 20:38 | 36.72507 | 28.92564 | 7459 ft | 287 kts | 196° |
| 2026-05-05 20:38 | 36.70592 | 28.91906 | 7011 ft | 284 kts | 196° |
| 2026-05-05 20:38 | 36.68700 | 28.91255 | 6573 ft | 281 kts | 196° |
| 2026-05-05 20:39 | 36.66838 | 28.90616 | 6397 ft | 273 kts | 196° |
| 2026-05-05 20:39 | 36.65032 | 28.89999 | 6265 ft | 265 kts | 196° |
| 2026-05-05 20:39 | 36.63280 | 28.89400 | 6135 ft | 257 kts | 196° |
| 2026-05-05 20:39 | 36.61579 | 28.88819 | 5972 ft | 251 kts | 196° |
| 2026-05-05 20:40 | 36.59910 | 28.88251 | 5757 ft | 247 kts | 196° |
| 2026-05-05 20:40 | 36.58818 | 28.87879 | 5604 ft | 245 kts | 196° |
| 2026-05-05 20:40 | 36.57177 | 28.87319 | 5366 ft | 244 kts | 195° |
| 2026-05-05 20:40 | 36.55542 | 28.86763 | 5116 ft | 243 kts | 195° |
| 2026-05-05 20:41 | 36.53906 | 28.86203 | 4871 ft | 244 kts | 195° |
| 2026-05-05 20:41 | 36.52273 | 28.85645 | 4623 ft | 243 kts | 195° |
| 2026-05-05 20:41 | 36.50641 | 28.85089 | 4369 ft | 243 kts | 195° |
| 2026-05-05 20:41 | 36.49018 | 28.84509 | 4137 ft | 242 kts | 201° |
| 2026-05-05 20:42 | 36.47599 | 28.83488 | 3979 ft | 232 kts | 224° |
| 2026-05-05 20:42 | 36.46670 | 28.81923 | 3848 ft | 222 kts | 250° |
| 2026-05-05 20:42 | 36.46372 | 28.80100 | 3731 ft | 213 kts | 275° |
| 2026-05-05 20:42 | 36.46688 | 28.78344 | 3606 ft | 207 kts | 298° |
| 2026-05-05 20:43 | 36.47524 | 28.76915 | 3480 ft | 204 kts | 320° |
| 2026-05-05 20:43 | 36.48722 | 28.76009 | 3357 ft | 201 kts | 342° |
| 2026-05-05 20:43 | 36.50045 | 28.75622 | 3228 ft | 191 kts | 349° |
| 2026-05-05 20:43 | 36.51313 | 28.75293 | 3133 ft | 184 kts | 349° |
| 2026-05-05 20:44 | 36.52554 | 28.74969 | 3005 ft | 181 kts | 348° |
| 2026-05-05 20:44 | 36.53787 | 28.74648 | 2897 ft | 180 kts | 348° |
| 2026-05-05 20:44 | 36.55015 | 28.74327 | 2818 ft | 180 kts | 348° |
| 2026-05-05 20:44 | 36.56255 | 28.74174 | 2731 ft | 177 kts | 5° |
| 2026-05-05 20:45 | 36.58488 | 28.74884 | 2362 ft | 160 kts | 14° |
| 2026-05-05 20:45 | 36.59562 | 28.75248 | 2153 ft | 160 kts | 14° |
| 2026-05-05 20:45 | 36.60632 | 28.75611 | 1943 ft | 159 kts | 14° |
| 2026-05-05 20:46 | 36.61641 | 28.75955 | 1746 ft | 146 kts | 13° |
| 2026-05-05 20:46 | 36.62594 | 28.76278 | 1547 ft | 140 kts | 14° |
| 2026-05-05 20:46 | 36.63541 | 28.76600 | 1364 ft | 138 kts | 14° |
| 2026-05-05 20:46 | 36.64453 | 28.76910 | 1177 ft | 138 kts | 14° |
| 2026-05-05 20:47 | 36.65379 | 28.77225 | 998 ft | 138 kts | 14° |
| 2026-05-05 20:47 | 36.66304 | 28.77539 | 815 ft | 137 kts | 14° |
| 2026-05-05 20:47 | 36.67223 | 28.77858 | 630 ft | 137 kts | 15° |
| 2026-05-05 20:47 | 36.68132 | 28.78189 | 424 ft | 136 kts | 16° |
| 2026-05-05 20:48 | 36.69042 | 28.78499 | 241 ft | 135 kts | 13° |
| 2026-05-05 20:48 | 36.69952 | 28.78788 | 83 ft | 135 kts | 15° |
| 2026-05-05 20:48 | 36.70830 | 28.79089 | 13 ft | 117 kts | 17° |
| 2026-05-05 20:48 | 36.71452 | 28.79299 | 12 ft | 68 kts | 15° |
| 2026-05-05 20:49 | 36.71789 | 28.79412 | 12 ft | 30 kts | 17° |
| 2026-05-05 20:49 | 36.71960 | 28.79431 | 12 ft | 24 kts | 355° |
| 2026-05-05 20:49 | 36.72086 | 28.79400 | 12 ft | 9 kts | 345° |
| 2026-05-05 20:49 | 36.72114 | 28.79386 | 12 ft | 1 kts | 329° |
| 2026-05-05 20:50 | 36.72124 | 28.79379 | 12 ft | 0 kts | 329° |
| 2026-05-05 20:50 | 36.72127 | 28.79376 | 12 ft | 2 kts | 328° |
| 2026-05-05 20:50 | 36.72135 | 28.79356 | 12 ft | 4 kts | 287° |
| 2026-05-05 20:50 | 36.72126 | 28.79319 | 14 ft | 5 kts | 231° |
| 2026-05-05 20:51 | 36.72085 | 28.79300 | 12 ft | 8 kts | 195° |
| 2026-05-05 20:51 | 36.72026 | 28.79281 | 12 ft | 10 kts | 194° |
| 2026-05-05 20:51 | 36.71952 | 28.79256 | 12 ft | 12 kts | 196° |
| 2026-05-05 20:51 | 36.71877 | 28.79218 | 13 ft | 11 kts | 231° |
| 2026-05-05 20:52 | 36.71881 | 28.79137 | 12 ft | 10 kts | 285° |
| 2026-05-05 20:52 | 36.71897 | 28.79046 | 12 ft | 11 kts | 270° |
| 2026-05-05 20:52 | 36.71837 | 28.78994 | 12 ft | 12 kts | 195° |
| 2026-05-05 20:52 | 36.71756 | 28.78966 | 12 ft | 13 kts | 195° |
| 2026-05-05 20:53 | 36.71696 | 28.78939 | 12 ft | 6 kts | 224° |
| 2026-05-05 20:53 | 36.71696 | 28.78889 | 12 ft | 7 kts | 283° |
| 2026-05-05 20:53 | 36.71704 | 28.78852 | 12 ft | 2 kts | 285° |
| 2026-05-05 20:53 | 36.71705 | 28.78848 | 12 ft | 0 kts | 285° |